createdAt,value
2022-10-05T00:00:51.164Z,101212.45
2022-10-05T00:03:38.841Z,101219.98
2022-10-05T00:06:13.367Z,101204.66
2022-10-05T00:08:45.986Z,101199.80
2022-10-05T00:11:18.770Z,101199.92
2022-10-05T00:13:51.924Z,101189.02
2022-10-05T00:16:23.853Z,101191.56
2022-10-05T00:18:56.391Z,101198.50
2022-10-05T00:21:30.109Z,101199.93
2022-10-05T00:24:05.141Z,101201.80
2022-10-05T00:26:37.105Z,101202.08
2022-10-05T00:29:22.702Z,101193.00
2022-10-05T00:31:54.436Z,101185.13
2022-10-05T00:34:28.718Z,101182.41
2022-10-05T00:37:00.962Z,101179.82
2022-10-05T00:39:32.874Z,101177.92
2022-10-05T00:42:19.603Z,101178.58
2022-10-05T00:44:58.102Z,101173.91
2022-10-05T00:47:50.894Z,101173.75
2022-10-05T00:50:48.356Z,101180.15
2022-10-05T00:53:33.694Z,101178.39
2022-10-05T00:56:11.478Z,101178.84
2022-10-05T00:58:55.163Z,101179.02
2022-10-05T01:01:36.438Z,101176.40
2022-10-05T01:04:17.739Z,101172.55
2022-10-05T01:07:05.831Z,101166.41
2022-10-05T01:09:46.685Z,101163.63
2022-10-05T01:12:27.019Z,101158.79
2022-10-05T01:15:06.093Z,101156.62
2022-10-05T01:17:46.905Z,101157.98
2022-10-05T01:20:28.648Z,101162.85
2022-10-05T01:23:20.708Z,101161.61
2022-10-05T01:26:05.142Z,101159.23
2022-10-05T01:28:42.277Z,101156.90
2022-10-05T01:31:22.475Z,101167.27
2022-10-05T01:34:09.146Z,101171.19
2022-10-05T01:36:51.277Z,101176.71
2022-10-05T01:39:30.420Z,101171.48
2022-10-05T01:42:13.741Z,101171.09
2022-10-05T01:44:54.457Z,101171.88
2022-10-05T01:47:36.979Z,101175.30
2022-10-05T01:50:20.725Z,101165.35
2022-10-05T01:53:00.034Z,101165.92
2022-10-05T01:55:39.067Z,101167.12
2022-10-05T01:58:20.076Z,101158.30
2022-10-05T02:00:59.579Z,101150.23
2022-10-05T02:03:37.685Z,101148.55
2022-10-05T02:06:16.401Z,101149.60
2022-10-05T02:08:51.732Z,101153.52
2022-10-05T02:11:25.897Z,101160.25
2022-10-05T02:14:06.901Z,101164.73
2022-10-05T02:16:44.589Z,101165.52
2022-10-05T02:19:21.262Z,101162.45
2022-10-05T02:21:57.624Z,101165.80
2022-10-05T02:24:36.377Z,101169.41
2022-10-05T02:27:10.628Z,101171.70
2022-10-05T02:29:48.328Z,101170.59
2022-10-05T02:32:26.941Z,101174.99
2022-10-05T02:35:04.007Z,101173.08
2022-10-05T02:37:44.016Z,101164.97
2022-10-05T02:40:26.847Z,101162.70
2022-10-05T02:43:09.293Z,101164.17
2022-10-05T02:45:49.460Z,101158.79
2022-10-05T02:48:31.317Z,101155.42
2022-10-05T02:51:13.225Z,101153.23
2022-10-05T02:53:56.377Z,101146.55
2022-10-05T02:56:37.284Z,101136.70
2022-10-05T02:59:15.862Z,101134.77
2022-10-05T03:01:53.268Z,101136.41
2022-10-05T03:04:33.718Z,101131.66
2022-10-05T03:07:15.436Z,101129.60
2022-10-05T03:09:58.814Z,101118.17
2022-10-05T03:12:48.805Z,101115.47
2022-10-05T03:15:38.119Z,101122.27
2022-10-05T03:18:21.006Z,101128.91
2022-10-05T03:21:06.163Z,101131.46
2022-10-05T03:23:50.147Z,101131.01
2022-10-05T03:26:35.882Z,101133.61
2022-10-05T03:29:17.323Z,101128.83
2022-10-05T03:31:57.013Z,101131.33
2022-10-05T03:34:35.813Z,101127.52
2022-10-05T03:37:16.094Z,101123.79
2022-10-05T03:39:54.450Z,101119.04
2022-10-05T03:42:35.228Z,101120.94
2022-10-05T03:45:11.057Z,101124.73
2022-10-05T03:47:50.245Z,101119.45
2022-10-05T03:50:41.858Z,101111.77
2022-10-05T03:53:18.699Z,101111.78
2022-10-05T03:55:56.563Z,101116.85
2022-10-05T03:58:34.469Z,101115.26
2022-10-05T04:01:12.031Z,101123.54
2022-10-05T04:03:47.291Z,101117.92
2022-10-05T04:06:23.452Z,101115.95
2022-10-05T04:09:01.648Z,101113.23
2022-10-05T04:11:38.799Z,101108.92
2022-10-05T04:14:15.490Z,101110.85
2022-10-05T04:16:50.639Z,101115.95
2022-10-05T04:19:27.102Z,101116.86
2022-10-05T04:22:05.900Z,101114.56
2022-10-05T04:24:43.895Z,101115.18
2022-10-05T04:27:19.371Z,101120.65
2022-10-05T04:29:58.769Z,101118.46
2022-10-05T04:32:40.044Z,101117.94
2022-10-05T04:35:30.784Z,101113.52
2022-10-05T04:38:12.863Z,101118.77
2022-10-05T04:40:58.736Z,101125.61
2022-10-05T04:43:43.137Z,101125.09
2022-10-05T04:46:27.988Z,101122.16
2022-10-05T04:49:15.357Z,101119.48
2022-10-05T04:51:55.666Z,101122.98
2022-10-05T04:54:37.592Z,101117.94
2022-10-05T04:57:13.765Z,101106.48
2022-10-05T05:00:02.170Z,101105.03
2022-10-05T05:02:47.245Z,101103.75
2022-10-05T05:05:53.102Z,101100.06
2022-10-05T05:08:47.293Z,101098.52
2022-10-05T05:11:28.285Z,101099.16
2022-10-05T05:14:17.539Z,101106.95
2022-10-05T05:16:59.106Z,101106.98
2022-10-05T05:19:47.197Z,101111.77
2022-10-05T05:22:36.899Z,101120.34
2022-10-05T05:25:38.626Z,101123.27
2022-10-05T05:28:24.605Z,101123.73
2022-10-05T05:31:08.351Z,101123.95
2022-10-05T05:33:50.106Z,101124.31
2022-10-05T05:36:35.714Z,101123.14
2022-10-05T05:39:25.274Z,101121.85
2022-10-05T05:42:03.091Z,101119.14
2022-10-05T05:44:42.615Z,101115.69
2022-10-05T05:47:22.577Z,101118.57
2022-10-05T05:50:07.626Z,101120.17
2022-10-05T05:52:48.270Z,101113.63
2022-10-05T05:55:29.670Z,101119.20
2022-10-05T05:58:10.399Z,101117.20
2022-10-05T06:00:47.762Z,101119.12
2022-10-05T06:03:25.648Z,101117.45
2022-10-05T06:06:02.897Z,101114.58
2022-10-05T06:08:45.022Z,101115.18
2022-10-05T06:11:23.035Z,101114.08
2022-10-05T06:13:55.612Z,101111.34
2022-10-05T06:16:36.125Z,101107.21
2022-10-05T06:19:14.225Z,101109.91
2022-10-05T06:21:52.075Z,101105.34
2022-10-05T06:24:27.404Z,101104.11
2022-10-05T06:27:24.512Z,101106.41
2022-10-05T06:30:13.964Z,101110.27
2022-10-05T06:33:03.704Z,101115.54
2022-10-05T06:35:48.585Z,101113.44
2022-10-05T06:38:35.090Z,101107.62
2022-10-05T06:41:20.434Z,101107.97
2022-10-05T06:43:59.444Z,101105.45
2022-10-05T06:46:37.071Z,101106.66
2022-10-05T06:49:24.535Z,101107.63
2022-10-05T06:52:03.526Z,101105.58
2022-10-05T06:54:48.617Z,101103.67
2022-10-05T06:57:39.150Z,101112.69
2022-10-05T07:00:24.939Z,101117.44
2022-10-05T07:03:05.405Z,101121.34
2022-10-05T07:05:53.663Z,101118.52
2022-10-05T07:08:40.075Z,101117.39
2022-10-05T07:11:26.471Z,101111.85
2022-10-05T07:14:13.341Z,101105.48
2022-10-05T07:16:58.598Z,101107.09
2022-10-05T07:19:38.072Z,101112.34
2022-10-05T07:22:30.534Z,101106.95
2022-10-05T07:25:11.717Z,101104.13
2022-10-05T07:27:51.871Z,101107.77
2022-10-05T07:30:30.063Z,101112.02
2022-10-05T07:33:09.516Z,101114.21
2022-10-05T07:36:12.360Z,101108.33
2022-10-05T07:38:54.480Z,101109.58
2022-10-05T07:41:35.041Z,101109.76
2022-10-05T07:44:14.260Z,101110.23
2022-10-05T07:46:55.678Z,101108.67
2022-10-05T07:49:42.620Z,101111.30
2022-10-05T07:52:21.533Z,101105.48
2022-10-05T07:55:03.385Z,101104.98
2022-10-05T07:57:40.896Z,101106.15
2022-10-05T08:00:19.144Z,101106.55
2022-10-05T08:02:55.302Z,101107.35
2022-10-05T08:05:31.087Z,101106.61
2022-10-05T08:08:14.416Z,101108.00
2022-10-05T08:10:56.288Z,101109.09
2022-10-05T08:13:37.148Z,101112.41
2022-10-05T08:16:15.614Z,101119.95
2022-10-05T08:18:58.578Z,101120.23
2022-10-05T08:21:37.348Z,101124.86
2022-10-05T08:24:16.703Z,101124.11
2022-10-05T08:26:56.298Z,101122.63
2022-10-05T08:29:34.256Z,101122.69
2022-10-05T08:32:12.909Z,101124.10
2022-10-05T08:34:52.578Z,101124.46
2022-10-05T08:37:28.457Z,101121.81
2022-10-05T08:40:25.460Z,101119.48
2022-10-05T08:43:12.506Z,101117.52
2022-10-05T08:46:11.620Z,101115.21
2022-10-05T08:49:04.520Z,101109.39
2022-10-05T08:52:01.791Z,101108.46
2022-10-05T08:54:42.604Z,101113.31
2022-10-05T08:57:47.618Z,101117.89
2022-10-05T09:00:23.399Z,101111.36
2022-10-05T09:03:16.254Z,101108.98
2022-10-05T09:06:16.049Z,101106.48
2022-10-05T09:09:20.284Z,101101.64
2022-10-05T09:12:07.720Z,101104.48
2022-10-05T09:15:01.504Z,101095.56
2022-10-05T09:18:10.031Z,101092.58
2022-10-05T09:20:51.330Z,101089.98
2022-10-05T09:23:37.240Z,101089.42
2022-10-05T09:26:44.761Z,101090.63
2022-10-05T09:29:51.958Z,101079.96
2022-10-05T09:32:43.003Z,101077.80
2022-10-05T09:35:28.558Z,101080.05
2022-10-05T09:38:15.228Z,101076.91
2022-10-05T09:41:18.209Z,101074.48
2022-10-05T09:44:32.727Z,101069.98
2022-10-05T09:47:31.931Z,101064.66
2022-10-05T09:50:30.904Z,101067.84
2022-10-05T09:53:40.907Z,101070.15
2022-10-05T09:56:41.614Z,101068.73
2022-10-05T09:59:36.159Z,101064.04
2022-10-05T10:02:43.528Z,101061.80
2022-10-05T10:05:32.947Z,101066.14
2022-10-05T10:08:17.187Z,101057.42
2022-10-05T10:11:12.802Z,101057.83
2022-10-05T10:14:07.055Z,101055.23
2022-10-05T10:16:59.635Z,101045.75
2022-10-05T10:20:01.399Z,101049.73
2022-10-05T10:23:13.809Z,101046.98
2022-10-05T10:26:25.322Z,101042.11
2022-10-05T10:29:42.478Z,101042.73
2022-10-05T10:32:30.729Z,101038.65
2022-10-05T10:35:19.467Z,101034.40
2022-10-05T10:38:26.717Z,101029.68
2022-10-05T10:41:21.097Z,101025.05
2022-10-05T10:44:15.744Z,101018.82
2022-10-05T10:47:01.219Z,101019.84
2022-10-05T10:49:51.130Z,101021.48
2022-10-05T10:52:37.235Z,101025.73
2022-10-05T10:55:39.022Z,101025.60
2022-10-05T10:58:50.647Z,101023.55
2022-10-05T11:01:35.487Z,101029.58
2022-10-05T11:04:34.101Z,101035.73
2022-10-05T11:07:46.891Z,101028.69
2022-10-05T11:10:30.940Z,101030.73
2022-10-05T11:13:18.290Z,101030.95
2022-10-05T11:19:07.067Z,101029.44
2022-10-05T11:21:45.789Z,101029.50
2022-10-05T11:24:43.523Z,101027.81
2022-10-05T11:27:29.320Z,101021.14
2022-10-05T11:30:22.367Z,101023.73
2022-10-05T11:33:20.589Z,101026.33
2022-10-05T11:36:09.005Z,101029.23
2022-10-05T11:39:02.187Z,101030.29
2022-10-05T11:41:59.161Z,101029.85
2022-10-05T11:44:52.756Z,101018.38
2022-10-05T11:47:27.561Z,101010.38
2022-10-05T11:50:14.149Z,101011.21
2022-10-05T11:52:55.246Z,101009.85
2022-10-05T11:55:32.905Z,100999.52
2022-10-05T11:58:12.575Z,100986.79
2022-10-05T12:00:51.213Z,100988.48
2022-10-05T12:03:48.136Z,100995.52
2022-10-05T12:06:38.808Z,100983.18
2022-10-05T12:09:25.088Z,100983.81
2022-10-05T12:12:09.185Z,100975.95
2022-10-05T12:14:54.641Z,100973.15
2022-10-05T12:17:34.112Z,100966.94
2022-10-05T12:20:21.659Z,100966.16
2022-10-05T12:22:58.097Z,100960.21
2022-10-05T12:25:35.193Z,100956.14
2022-10-05T12:28:12.246Z,100953.34
2022-10-05T12:31:09.364Z,100946.46
2022-10-05T12:33:48.050Z,100947.13
2022-10-05T12:36:31.958Z,100941.02
2022-10-05T12:39:23.576Z,100935.86
2022-10-05T12:42:05.765Z,100929.27
2022-10-05T12:45:04.432Z,100929.38
2022-10-05T12:47:53.628Z,100924.89
2022-10-05T12:50:28.865Z,100928.84
2022-10-05T12:53:16.953Z,100925.89
2022-10-05T12:55:59.466Z,100922.59
2022-10-05T12:58:43.193Z,100919.63
2022-10-05T13:01:29.054Z,100919.95
2022-10-05T13:04:12.309Z,100917.52
2022-10-05T13:06:49.031Z,100922.90
2022-10-05T13:09:29.374Z,100919.59
2022-10-05T13:12:09.352Z,100916.93
2022-10-05T13:14:55.879Z,100909.94
2022-10-05T13:17:37.262Z,100906.46
2022-10-05T13:20:26.491Z,100903.55
2022-10-05T13:23:06.590Z,100900.64
2022-10-05T13:25:43.709Z,100896.07
2022-10-05T13:28:22.981Z,100898.98
2022-10-05T13:31:06.700Z,100898.52
2022-10-05T13:34:03.080Z,100895.52
2022-10-05T13:36:44.883Z,100895.27
2022-10-05T13:39:28.844Z,100894.33
2022-10-05T13:42:08.900Z,100888.83
2022-10-05T13:44:49.234Z,100886.39
2022-10-05T13:47:31.551Z,100880.40
2022-10-05T13:50:10.951Z,100881.26
2022-10-05T13:52:55.210Z,100878.80
2022-10-05T13:55:39.020Z,100879.35
2022-10-05T13:58:20.229Z,100882.09
2022-10-05T14:00:55.719Z,100878.05
2022-10-05T14:03:31.812Z,100882.98
2022-10-05T14:06:11.678Z,100879.43
2022-10-05T14:08:53.050Z,100874.59
2022-10-05T14:11:31.358Z,100872.19
2022-10-05T14:14:15.051Z,100868.38
2022-10-05T14:16:54.810Z,100870.39
2022-10-05T14:19:32.729Z,100868.55
2022-10-05T14:22:13.259Z,100866.72
2022-10-05T14:24:55.254Z,100863.25
2022-10-05T14:27:31.049Z,100862.84
2022-10-05T14:30:29.071Z,100856.85
2022-10-05T14:33:15.268Z,100857.16
2022-10-05T14:35:53.111Z,100857.08
2022-10-05T14:38:29.518Z,100850.84
2022-10-05T14:41:18.369Z,100846.62
2022-10-05T14:43:58.499Z,100847.95
2022-10-05T14:46:32.802Z,100848.70
2022-10-05T14:49:21.523Z,100848.77
2022-10-05T14:51:54.625Z,100845.31
2022-10-05T14:54:30.512Z,100845.05
2022-10-05T14:57:12.376Z,100846.80
2022-10-05T15:00:11.385Z,100846.88
2022-10-05T15:03:18.245Z,100845.39
2022-10-05T15:05:53.517Z,100838.55
2022-10-05T15:08:46.441Z,100840.13
2022-10-05T15:11:29.963Z,100839.70
2022-10-05T15:14:03.453Z,100838.65
2022-10-05T15:16:39.232Z,100833.13
2022-10-05T15:19:21.027Z,100834.53
2022-10-05T15:22:08.658Z,100825.88
2022-10-05T15:24:46.786Z,100827.02
2022-10-05T15:27:32.899Z,100823.75
2022-10-05T15:30:20.143Z,100820.30
2022-10-05T15:33:06.418Z,100820.05
2022-10-05T15:35:48.945Z,100820.47
2022-10-05T15:38:25.862Z,100817.49
2022-10-05T15:41:11.055Z,100815.33
2022-10-05T15:43:53.974Z,100815.52
2022-10-05T15:46:35.174Z,100810.58
2022-10-05T15:49:16.457Z,100812.06
2022-10-05T15:52:01.900Z,100811.76
2022-10-05T15:55:03.535Z,100811.46
2022-10-05T15:57:46.766Z,100816.28
2022-10-05T16:00:25.381Z,100818.27
2022-10-05T16:03:09.727Z,100816.61
2022-10-05T16:06:07.660Z,100819.45
2022-10-05T16:08:55.726Z,100818.62
2022-10-05T16:11:43.690Z,100820.30
2022-10-05T16:14:32.021Z,100823.42
2022-10-05T16:17:17.559Z,100817.98
2022-10-05T16:20:18.011Z,100820.73
2022-10-05T16:23:02.696Z,100819.70
2022-10-05T16:25:47.206Z,100828.48
2022-10-05T16:28:29.300Z,100826.79
2022-10-05T16:31:08.042Z,100827.02
2022-10-05T16:33:54.391Z,100822.23
2022-10-05T16:36:40.279Z,100824.55
2022-10-05T16:39:16.959Z,100825.80
2022-10-05T16:41:58.518Z,100826.73
2022-10-05T16:44:40.804Z,100831.52
2022-10-05T16:47:35.791Z,100832.70
2022-10-05T16:50:24.222Z,100832.42
2022-10-05T16:53:02.518Z,100830.41
2022-10-05T16:55:37.889Z,100833.83
2022-10-05T16:58:17.775Z,100835.95
2022-10-05T17:01:03.007Z,100835.44
2022-10-05T17:03:49.764Z,100841.09
2022-10-05T17:06:55.110Z,100842.27
2022-10-05T17:09:46.970Z,100844.30
2022-10-05T17:12:34.963Z,100845.33
2022-10-05T17:15:24.068Z,100844.99
2022-10-05T17:18:07.834Z,100847.41
2022-10-05T17:20:50.917Z,100846.23
2022-10-05T17:23:44.019Z,100850.77
2022-10-05T17:26:40.138Z,100850.75
2022-10-05T17:29:26.625Z,100847.86
2022-10-05T17:32:33.604Z,100853.48
2022-10-05T17:35:40.587Z,100849.52
2022-10-05T17:38:22.185Z,100846.20
2022-10-05T17:41:18.159Z,100844.52
2022-10-05T17:44:21.035Z,100840.79
2022-10-05T17:46:54.157Z,100839.23
2022-10-05T17:50:19.330Z,100834.12
2022-10-05T17:53:39.588Z,100833.59
2022-10-05T17:56:11.351Z,100828.71
2022-10-05T17:59:03.530Z,100828.41
2022-10-05T18:01:38.185Z,100828.30
2022-10-05T18:04:34.723Z,100828.45
2022-10-05T18:07:19.435Z,100824.27
2022-10-05T18:09:59.056Z,100822.66
2022-10-05T18:12:49.498Z,100823.38
2022-10-05T18:15:48.788Z,100823.55
2022-10-05T18:18:50.760Z,100823.79
2022-10-05T18:21:35.699Z,100826.05
2022-10-05T18:24:28.797Z,100824.52
2022-10-05T18:27:16.999Z,100825.30
2022-10-05T18:33:30.009Z,100822.81
2022-10-05T18:36:12.170Z,100820.89
2022-10-05T18:38:55.872Z,100823.41
2022-10-05T18:41:41.371Z,100821.17
2022-10-05T18:44:30.607Z,100823.47
2022-10-05T18:47:09.089Z,100822.55
2022-10-05T18:49:51.892Z,100825.87
2022-10-05T18:52:35.807Z,100825.56
2022-10-05T18:55:20.247Z,100823.11
2022-10-05T18:58:20.311Z,100825.00
2022-10-05T19:01:15.142Z,100824.05
2022-10-05T19:04:02.289Z,100823.73
2022-10-05T19:06:41.539Z,100823.77
2022-10-05T19:09:26.771Z,100830.09
2022-10-05T19:12:05.563Z,100831.41
2022-10-05T19:14:45.392Z,100835.53
2022-10-05T19:17:33.681Z,100836.51
2022-10-05T19:20:25.678Z,100840.23
2022-10-05T19:23:18.758Z,100841.90
2022-10-05T19:25:55.776Z,100839.89
2022-10-05T19:28:38.164Z,100842.26
2022-10-05T19:31:26.497Z,100844.55
2022-10-05T19:34:16.473Z,100844.45
2022-10-05T19:37:08.252Z,100845.56
2022-10-05T19:39:49.289Z,100846.32
2022-10-05T19:42:38.354Z,100849.08
2022-10-05T19:45:19.322Z,100845.96
2022-10-05T19:47:55.155Z,100852.83
2022-10-05T19:50:37.852Z,100859.86
2022-10-05T19:53:15.072Z,100858.07
2022-10-05T19:55:47.478Z,100868.55
2022-10-05T19:58:26.146Z,100867.48
2022-10-05T20:01:04.459Z,100875.02
2022-10-05T20:03:39.050Z,100875.24
2022-10-05T20:06:13.105Z,100871.55
2022-10-05T20:08:46.489Z,100869.27
2022-10-05T20:11:19.286Z,100873.16
2022-10-05T20:14:20.997Z,100872.40
2022-10-05T20:17:43.966Z,100875.45
2022-10-05T20:20:35.577Z,100878.27
2022-10-05T20:23:24.992Z,100882.79
2022-10-05T20:26:14.152Z,100884.95
2022-10-05T20:28:46.812Z,100885.77
2022-10-05T20:31:21.122Z,100885.20
2022-10-05T20:33:52.692Z,100889.25
2022-10-05T20:36:24.428Z,100886.34
2022-10-05T20:38:56.009Z,100890.39
2022-10-05T20:41:27.565Z,100895.58
2022-10-05T20:43:59.235Z,100895.83
2022-10-05T20:46:31.379Z,100894.48
2022-10-05T20:49:03.034Z,100895.70
2022-10-05T20:51:34.591Z,100897.86
2022-10-05T20:54:06.754Z,100896.79
2022-10-05T20:56:38.427Z,100896.04
2022-10-05T20:59:10.081Z,100896.88
2022-10-05T21:01:45.166Z,100898.30
2022-10-05T21:04:17.565Z,100891.71
2022-10-05T21:06:49.404Z,100896.64
2022-10-05T21:09:21.765Z,100892.79
2022-10-05T21:11:56.438Z,100894.44
2022-10-05T21:14:33.016Z,100899.91
2022-10-05T21:17:04.878Z,100899.22
2022-10-05T21:19:38.561Z,100903.22
2022-10-05T21:22:12.197Z,100905.45
2022-10-05T21:24:43.808Z,100911.63
2022-10-05T21:27:15.950Z,100915.45
2022-10-05T21:29:47.488Z,100917.71
2022-10-05T21:32:20.689Z,100919.35
2022-10-05T21:34:52.248Z,100921.95
2022-10-05T21:37:23.841Z,100925.80
2022-10-05T21:39:55.473Z,100928.59
2022-10-05T21:42:29.039Z,100928.30
2022-10-05T21:45:00.631Z,100926.35
2022-10-05T21:47:32.281Z,100928.97
2022-10-05T21:50:05.384Z,100930.15
2022-10-05T21:52:38.090Z,100933.00
2022-10-05T21:55:11.613Z,100932.84
2022-10-05T21:57:44.063Z,100935.21
2022-10-05T22:00:16.975Z,100936.27
2022-10-05T22:02:50.250Z,100931.86
2022-10-05T22:05:22.162Z,100934.94
2022-10-05T22:07:54.543Z,100932.69
2022-10-05T22:10:26.440Z,100933.25
2022-10-05T22:13:04.303Z,100938.40
2022-10-05T22:15:35.937Z,100936.91
2022-10-05T22:18:07.743Z,100939.04
2022-10-05T22:20:39.429Z,100936.84
2022-10-05T22:23:12.305Z,100935.56
2022-10-05T22:25:44.316Z,100937.42
2022-10-05T22:28:17.655Z,100937.04
2022-10-05T22:30:49.399Z,100938.30
2022-10-05T22:33:22.677Z,100940.25
2022-10-05T22:35:54.710Z,100940.73
2022-10-05T22:38:26.740Z,100942.02
2022-10-05T22:40:58.795Z,100942.58
2022-10-05T22:43:31.451Z,100945.49
2022-10-05T22:46:08.263Z,100950.34
2022-10-05T22:48:40.322Z,100948.89
2022-10-05T22:51:12.132Z,100947.16
2022-10-05T22:53:44.727Z,100948.73
2022-10-05T22:56:17.168Z,100953.34
2022-10-05T22:58:49.908Z,100951.60
2022-10-05T23:01:22.410Z,100955.27
2022-10-05T23:03:56.298Z,100955.02
2022-10-05T23:06:27.978Z,100953.79
2022-10-05T23:09:00.400Z,100956.70
2022-10-05T23:11:32.083Z,100955.91
2022-10-05T23:14:04.634Z,100962.80
2022-10-05T23:16:36.260Z,100963.16
2022-10-05T23:19:07.887Z,100971.47
2022-10-05T23:21:39.846Z,100968.62
2022-10-05T23:24:12.692Z,100964.56
2022-10-05T23:26:44.232Z,100967.70
2022-10-05T23:29:15.827Z,100966.88
2022-10-05T23:31:47.398Z,100969.11
2022-10-05T23:34:21.572Z,100965.65
2022-10-05T23:36:53.056Z,100969.25
2022-10-05T23:39:24.706Z,100966.95
2022-10-05T23:41:56.263Z,100972.40
2022-10-05T23:44:29.738Z,100974.18
2022-10-05T23:47:01.289Z,100976.73
2022-10-05T23:49:32.860Z,100982.88
2022-10-05T23:52:04.449Z,100985.52
2022-10-05T23:54:36.819Z,100985.95
2022-10-05T23:57:08.372Z,100985.55
2022-10-05T23:59:39.951Z,100980.17
